Ducos, Argentina
Current Conditions -  °F | °C
As of 3:00 PM on Wednesday 26 Nov 2014 (Local Time) from SAZM Reporting Station
Broken Clouds Broken Clouds  
Wind Chill: 81°   Ceiling: 20000
Heat Index: 81°   Visibility: 6mi
Dew Point: 50°   Wind: 21mph
Humidity: 34%   Direction: 340°NNW
Pressure: 29.85"   Gusts: NA
Location:  37.47°S, 62.42°W
Report Text: SAZM 261800Z 34018KT 9999 FEW030 FEW032BKN200 27/10 Q1011
Loading
Personal Weather Stations






























Interactive Weather Map New forecast layout! Learn more

10-Day Weather Forecast

Advertisements
Track Severe Weather on mobile